createdAt,value
2023-02-27T00:02:17.505Z,98822.22
2023-02-27T00:04:46.143Z,98810.25
2023-02-27T00:07:14.015Z,98800.00
2023-02-27T00:09:42.118Z,98815.94
2023-02-27T00:12:10.332Z,98804.63
2023-02-27T00:14:40.420Z,98811.47
2023-02-27T00:17:08.100Z,98796.06
2023-02-27T00:19:35.628Z,98799.72
2023-02-27T00:22:03.116Z,98807.25
2023-02-27T00:24:31.084Z,98808.50
2023-02-27T00:26:58.818Z,98812.44
2023-02-27T00:29:26.267Z,98808.91
2023-02-27T00:31:53.912Z,98816.81
2023-02-27T00:34:21.497Z,98800.59
2023-02-27T00:36:49.089Z,98802.28
2023-02-27T00:39:16.558Z,98799.91
2023-02-27T00:41:44.098Z,98807.38
2023-02-27T00:44:11.519Z,98810.81
2023-02-27T00:46:39.029Z,98821.25
2023-02-27T00:49:06.786Z,98820.31
2023-02-27T00:51:34.313Z,98823.75
2023-02-27T00:54:04.108Z,98823.03
2023-02-27T00:56:31.636Z,98824.56
2023-02-27T00:58:59.169Z,98834.06
2023-02-27T01:01:26.937Z,98840.97
2023-02-27T01:03:56.896Z,98829.16
2023-02-27T01:06:24.472Z,98837.41
2023-02-27T01:08:51.963Z,98838.97
2023-02-27T01:11:19.807Z,98828.38
2023-02-27T01:13:47.379Z,98826.41
2023-02-27T01:16:15.457Z,98833.91
2023-02-27T01:18:43.049Z,98829.31
2023-02-27T01:21:10.612Z,98823.34
2023-02-27T01:23:38.104Z,98830.97
2023-02-27T01:26:05.749Z,98843.47
2023-02-27T01:28:34.911Z,98840.31
2023-02-27T01:31:02.551Z,98838.13
2023-02-27T01:33:32.481Z,98835.47
2023-02-27T01:36:01.431Z,98839.47
2023-02-27T01:38:28.955Z,98839.88
2023-02-27T01:40:57.376Z,98853.81
2023-02-27T01:43:25.031Z,98870.09
2023-02-27T01:45:53.709Z,98870.28
2023-02-27T01:48:37.707Z,98864.69
2023-02-27T01:51:16.176Z,98872.19
2023-02-27T01:53:46.792Z,98870.25
2023-02-27T01:56:20.839Z,98869.50
2023-02-27T01:58:51.446Z,98863.22
2023-02-27T02:01:21.191Z,98871.06
2023-02-27T02:04:30.587Z,98869.78
2023-02-27T02:07:07.640Z,98876.66
2023-02-27T02:09:48.976Z,98874.81
2023-02-27T02:12:19.800Z,98895.72
2023-02-27T02:14:47.351Z,98906.78
2023-02-27T02:17:26.807Z,98905.16
2023-02-27T02:20:08.922Z,98901.66
2023-02-27T02:23:16.186Z,98896.16
2023-02-27T02:26:25.083Z,98904.28
2023-02-27T02:29:19.544Z,98924.84
2023-02-27T02:32:32.993Z,98929.94
2023-02-27T02:35:36.634Z,98919.41
2023-02-27T02:38:25.046Z,98911.56
2023-02-27T02:41:13.515Z,98905.28
2023-02-27T02:43:57.380Z,98918.03
2023-02-27T02:46:58.196Z,98938.69
2023-02-27T02:49:57.993Z,98941.22
2023-02-27T02:52:44.857Z,98939.75
2023-02-27T02:55:33.654Z,98936.34
2023-02-27T02:58:15.496Z,98924.63
2023-02-27T03:00:59.359Z,98932.28
2023-02-27T03:03:46.043Z,98941.50
2023-02-27T03:06:25.336Z,98957.06
2023-02-27T03:09:00.117Z,98957.50
2023-02-27T03:11:33.337Z,98953.72
2023-02-27T03:14:25.613Z,98954.97
2023-02-27T03:17:01.866Z,98951.88
2023-02-27T03:19:41.757Z,98960.34
2023-02-27T03:22:15.742Z,98971.19
2023-02-27T03:25:06.929Z,98978.81
2023-02-27T03:27:46.050Z,98990.78
2023-02-27T03:30:37.269Z,98990.59
2023-02-27T03:33:30.585Z,98986.84
2023-02-27T03:36:15.673Z,98980.47
2023-02-27T03:38:54.762Z,98992.28
2023-02-27T03:42:04.490Z,98993.59
2023-02-27T03:45:39.379Z,98997.56
2023-02-27T03:48:09.076Z,99011.22
2023-02-27T03:50:38.433Z,99019.84
2023-02-27T03:53:37.933Z,99019.00
2023-02-27T03:56:08.926Z,99022.41
2023-02-27T03:58:36.974Z,99036.25
2023-02-27T04:01:04.796Z,99043.03
2023-02-27T04:03:49.843Z,99050.50
2023-02-27T04:06:50.813Z,99043.38
2023-02-27T04:09:57.901Z,99052.56
2023-02-27T04:13:02.044Z,99059.03
2023-02-27T04:16:00.713Z,99069.22
2023-02-27T04:18:56.938Z,99075.38
2023-02-27T04:21:34.319Z,99094.56
2023-02-27T04:24:35.498Z,99107.06
2023-02-27T04:27:19.367Z,99091.09
2023-02-27T04:30:29.181Z,99090.16
2023-02-27T04:33:13.286Z,99090.59
2023-02-27T04:35:53.259Z,99101.88
2023-02-27T04:39:03.905Z,99104.06
2023-02-27T04:42:06.943Z,99106.41
2023-02-27T04:44:37.021Z,99106.63
2023-02-27T04:47:10.850Z,99123.06
2023-02-27T04:49:47.106Z,99144.81
2023-02-27T04:52:30.176Z,99189.34
2023-02-27T04:55:15.296Z,99269.91
2023-02-27T04:57:52.101Z,99271.22
2023-02-27T05:00:23.627Z,99283.91
2023-02-27T05:02:59.920Z,99287.75
2023-02-27T05:05:32.886Z,99303.84
2023-02-27T05:08:55.403Z,99308.09
2023-02-27T05:11:38.710Z,99324.53
2023-02-27T05:17:39.295Z,99327.06
2023-02-27T05:20:07.684Z,99325.88
2023-02-27T05:22:59.850Z,99335.91
2023-02-27T05:25:58.912Z,99366.31
2023-02-27T05:28:56.012Z,99357.59
2023-02-27T05:48:40.233Z,99415.41
2023-02-27T05:51:11.823Z,99412.31
2023-02-27T05:53:51.246Z,99395.88
2023-02-27T05:56:22.264Z,99375.31
2023-02-27T05:59:01.323Z,99342.47
2023-02-27T06:01:28.812Z,99328.56
2023-02-27T06:03:57.762Z,99335.63
2023-02-27T06:06:26.116Z,99319.50
2023-02-27T06:08:53.719Z,99324.28
2023-02-27T06:11:21.182Z,99338.50
2023-02-27T06:13:48.633Z,99340.44
2023-02-27T06:16:17.200Z,99345.72
2023-02-27T06:18:44.755Z,99340.97
2023-02-27T06:21:14.275Z,99337.53
2023-02-27T06:23:41.872Z,99335.44
2023-02-27T06:26:14.144Z,99330.13
2023-02-27T06:28:42.611Z,99332.03
2023-02-27T06:31:10.044Z,99331.63
2023-02-27T06:33:40.856Z,99336.28
2023-02-27T06:36:08.442Z,99345.75
2023-02-27T06:38:36.902Z,99355.00
2023-02-27T06:41:04.511Z,99356.56
2023-02-27T06:43:34.749Z,99351.25
2023-02-27T06:46:02.659Z,99358.66
2023-02-27T06:48:30.153Z,99372.53
2023-02-27T06:50:58.109Z,99386.78
2023-02-27T06:53:26.121Z,99384.59
2023-02-27T06:55:53.587Z,99379.47
2023-02-27T06:58:21.114Z,99382.97
2023-02-27T07:00:48.622Z,99384.59
2023-02-27T07:03:16.212Z,99385.19
2023-02-27T07:05:44.763Z,99381.31
2023-02-27T07:08:12.295Z,99375.50
2023-02-27T07:10:40.311Z,99382.47
2023-02-27T07:13:07.694Z,99388.59
2023-02-27T07:15:35.730Z,99395.66
2023-02-27T07:18:03.427Z,99391.91
2023-02-27T07:20:30.932Z,99389.09
2023-02-27T07:22:58.499Z,99399.63
2023-02-27T07:25:26.007Z,99418.00
2023-02-27T07:27:53.473Z,99427.75
2023-02-27T07:30:21.045Z,99431.91
2023-02-27T07:32:50.777Z,99434.38
2023-02-27T07:35:19.500Z,99434.78
2023-02-27T07:37:48.235Z,99440.91
2023-02-27T07:40:16.650Z,99446.22
2023-02-27T07:42:44.205Z,99449.19
2023-02-27T07:45:13.191Z,99448.91
2023-02-27T07:47:40.708Z,99445.59
2023-02-27T07:50:09.299Z,99433.06
2023-02-27T07:52:36.705Z,99439.59
2023-02-27T07:55:04.229Z,99447.53
2023-02-27T07:57:53.910Z,99436.66
2023-02-27T08:00:22.296Z,99443.66
2023-02-27T08:02:50.349Z,99443.91
2023-02-27T08:05:18.433Z,99447.91
2023-02-27T08:07:46.012Z,99450.66
2023-02-27T08:10:16.205Z,99454.91
2023-02-27T08:12:44.840Z,99467.25
2023-02-27T08:15:12.797Z,99466.41
2023-02-27T08:17:40.280Z,99460.41
2023-02-27T08:20:11.334Z,99459.19
2023-02-27T08:22:38.958Z,99465.06
2023-02-27T08:25:10.793Z,99475.72
2023-02-27T08:27:39.344Z,99481.97
2023-02-27T08:30:09.360Z,99484.00
2023-02-27T08:32:38.660Z,99486.28
2023-02-27T08:35:07.475Z,99486.63
2023-02-27T08:37:35.020Z,99485.56
2023-02-27T08:40:02.517Z,99494.13
2023-02-27T08:42:30.359Z,99489.31
2023-02-27T08:44:58.273Z,99489.41
2023-02-27T08:47:26.548Z,99494.75
2023-02-27T08:49:56.653Z,99498.31
2023-02-27T08:52:25.085Z,99506.56
2023-02-27T08:54:52.612Z,99504.25
2023-02-27T08:57:20.457Z,99512.13
2023-02-27T08:59:48.310Z,99513.31
2023-02-27T09:02:16.056Z,99514.16
2023-02-27T09:04:43.516Z,99514.63
2023-02-27T09:07:12.238Z,99513.81
2023-02-27T09:09:39.814Z,99506.81
2023-02-27T09:12:08.138Z,99520.59
2023-02-27T09:14:37.356Z,99519.66
2023-02-27T09:17:06.060Z,99525.88
2023-02-27T09:19:36.325Z,99531.47
2023-02-27T09:22:05.952Z,99532.63
2023-02-27T09:24:33.475Z,99530.16
2023-02-27T09:27:01.939Z,99530.78
2023-02-27T09:29:32.124Z,99530.06
2023-02-27T09:32:04.743Z,99529.81
2023-02-27T09:34:35.643Z,99532.38
2023-02-27T09:37:03.207Z,99528.78
2023-02-27T09:39:30.933Z,99535.78
2023-02-27T09:42:24.304Z,99528.25
2023-02-27T09:44:57.605Z,99527.34
2023-02-27T09:47:50.841Z,99523.81
2023-02-27T09:50:41.056Z,99523.63
2023-02-27T09:53:37.765Z,99523.81
2023-02-27T09:56:29.964Z,99530.34
2023-02-27T09:59:09.221Z,99515.84
2023-02-27T10:02:27.018Z,99518.09
2023-02-27T10:05:30.699Z,99519.28
2023-02-27T10:08:30.348Z,99518.25
2023-02-27T10:11:12.198Z,99513.25
2023-02-27T10:14:33.986Z,99511.50
2023-02-27T10:17:12.119Z,99507.97
2023-02-27T10:19:41.034Z,99504.88
2023-02-27T10:22:30.947Z,99498.00
2023-02-27T10:25:29.740Z,99491.34
2023-02-27T10:28:16.635Z,99495.38
2023-02-27T10:31:24.204Z,99498.88
2023-02-27T10:33:53.627Z,99499.00
2023-02-27T10:36:33.620Z,99491.22
2023-02-27T10:39:12.523Z,99505.75
2023-02-27T10:41:41.654Z,99498.50
2023-02-27T10:44:14.628Z,99503.09
2023-02-27T10:46:43.168Z,99496.63
2023-02-27T10:49:22.171Z,99502.00
2023-02-27T10:52:13.509Z,99490.06
2023-02-27T10:54:43.077Z,99490.91
2023-02-27T10:57:30.415Z,99488.28
2023-02-27T11:00:28.257Z,99478.34
2023-02-27T11:02:55.950Z,99477.91
2023-02-27T11:05:32.215Z,99473.34
2023-02-27T11:08:31.409Z,99464.50
2023-02-27T11:11:07.150Z,99451.69
2023-02-27T11:13:45.521Z,99459.28
2023-02-27T11:16:21.854Z,99457.34
2023-02-27T11:18:52.378Z,99452.97
2023-02-27T11:21:24.801Z,99451.69
2023-02-27T11:24:17.989Z,99458.66
2023-02-27T11:27:03.729Z,99452.22
2023-02-27T11:29:35.421Z,99441.13
2023-02-27T11:32:15.052Z,99441.00
2023-02-27T11:34:50.778Z,99438.28
2023-02-27T11:37:35.469Z,99440.69
2023-02-27T11:40:14.747Z,99443.22
2023-02-27T11:42:50.421Z,99441.31
2023-02-27T11:46:13.989Z,99441.09
2023-02-27T11:48:28.421Z,99444.06
2023-02-27T11:51:26.731Z,99442.22
2023-02-27T11:54:01.036Z,99443.06
2023-02-27T11:56:41.904Z,99447.22
2023-02-27T11:59:15.003Z,99448.22
2023-02-27T12:02:03.780Z,99449.44
2023-02-27T12:04:55.842Z,99438.16
2023-02-27T12:08:19.958Z,99431.97
2023-02-27T12:11:14.229Z,99428.84
2023-02-27T12:13:58.092Z,99428.41
2023-02-27T12:16:37.148Z,99434.84
2023-02-27T12:19:22.763Z,99432.16
2023-02-27T12:22:06.822Z,99431.03
2023-02-27T12:24:47.258Z,99427.78
2023-02-27T12:27:34.075Z,99424.16
2023-02-27T12:30:28.688Z,99429.66
2023-02-27T12:33:18.403Z,99425.28
2023-02-27T12:35:56.203Z,99428.97
2023-02-27T12:38:24.807Z,99428.81
2023-02-27T12:40:54.709Z,99427.44
2023-02-27T12:44:06.708Z,99418.56
2023-02-27T12:46:55.735Z,99422.00
2023-02-27T12:49:52.940Z,99418.13
2023-02-27T12:53:01.722Z,99416.69
2023-02-27T12:55:54.199Z,99417.28
2023-02-27T12:58:58.487Z,99412.16
2023-02-27T13:01:37.538Z,99406.59
2023-02-27T13:04:45.092Z,99405.56
2023-02-27T13:07:37.499Z,99401.81
2023-02-27T13:10:34.979Z,99390.13
2023-02-27T13:13:46.803Z,99400.91
2023-02-27T13:16:37.208Z,99399.63
2023-02-27T13:19:24.470Z,99400.72
2023-02-27T13:22:29.326Z,99396.06
2023-02-27T13:25:01.504Z,99394.19
2023-02-27T13:27:36.438Z,99397.53
2023-02-27T13:30:03.848Z,99393.34
2023-02-27T13:33:03.197Z,99392.94
2023-02-27T13:36:13.964Z,99390.75
2023-02-27T13:38:48.973Z,99390.81
2023-02-27T13:41:25.646Z,99393.19
2023-02-27T13:43:57.922Z,99382.44
2023-02-27T13:46:33.785Z,99389.81
2023-02-27T13:49:20.015Z,99398.00
2023-02-27T13:51:56.826Z,99391.66
2023-02-27T13:54:40.761Z,99381.78
2023-02-27T13:57:19.701Z,99391.84
2023-02-27T14:00:21.257Z,99377.75
2023-02-27T14:03:25.893Z,99379.22
2023-02-27T14:05:57.653Z,99378.81
2023-02-27T14:08:28.386Z,99372.72
2023-02-27T14:11:13.459Z,99362.03
2023-02-27T14:13:49.978Z,99360.56
2023-02-27T14:16:41.729Z,99357.66
2023-02-27T14:19:22.730Z,99365.41
2023-02-27T14:22:12.216Z,99363.56
2023-02-27T14:25:01.047Z,99368.44
2023-02-27T14:27:57.154Z,99361.03
2023-02-27T14:31:01.560Z,99363.03
2023-02-27T14:33:42.412Z,99363.13
2023-02-27T14:36:27.701Z,99363.66
2023-02-27T14:38:58.025Z,99360.97
2023-02-27T14:41:48.681Z,99369.34
2023-02-27T14:44:25.632Z,99364.78
2023-02-27T14:46:56.349Z,99365.66
2023-02-27T14:49:33.957Z,99365.66
2023-02-27T14:52:25.433Z,99365.69
2023-02-27T14:54:53.799Z,99368.06
2023-02-27T14:57:29.318Z,99372.31
2023-02-27T14:59:56.902Z,99366.97
2023-02-27T15:05:03.701Z,99365.06
2023-02-27T15:07:35.165Z,99377.63
2023-02-27T15:10:10.133Z,99377.63
2023-02-27T15:12:39.850Z,99378.38
2023-02-27T15:15:10.137Z,99392.09
2023-02-27T15:17:44.043Z,99388.63
2023-02-27T15:20:36.326Z,99387.13
2023-02-27T15:23:28.331Z,99395.09
2023-02-27T15:25:59.318Z,99387.44
2023-02-27T15:28:38.456Z,99402.28
2023-02-27T15:31:08.521Z,99407.25
2023-02-27T15:33:36.271Z,99403.44
2023-02-27T15:36:04.161Z,99404.06
2023-02-27T15:38:35.905Z,99410.81
2023-02-27T15:41:05.232Z,99410.25
2023-02-27T15:43:33.100Z,99420.41
2023-02-27T15:46:00.972Z,99411.94
2023-02-27T15:48:48.799Z,99423.56
2023-02-27T15:51:16.633Z,99429.03
2023-02-27T15:53:50.490Z,99445.97
2023-02-27T15:56:25.685Z,99440.44
2023-02-27T15:59:00.238Z,99447.50
2023-02-27T16:01:38.969Z,99447.78
2023-02-27T16:04:20.921Z,99454.28
2023-02-27T16:07:25.627Z,99459.97
2023-02-27T16:10:08.782Z,99459.19
2023-02-27T16:12:39.089Z,99457.28
2023-02-27T16:15:31.571Z,99467.22
2023-02-27T16:18:23.597Z,99458.56
2023-02-27T16:20:57.346Z,99452.81
2023-02-27T16:23:34.248Z,99464.22
2023-02-27T16:26:27.575Z,99467.44
2023-02-27T16:29:04.807Z,99469.59
2023-02-27T16:31:47.812Z,99475.41
2023-02-27T16:34:44.629Z,99470.09
2023-02-27T16:37:40.509Z,99474.09
2023-02-27T16:40:17.011Z,99471.44
2023-02-27T16:42:50.944Z,99479.13
2023-02-27T16:45:25.683Z,99488.84
2023-02-27T16:47:58.549Z,99494.66
2023-02-27T16:50:36.279Z,99494.66
2023-02-27T16:53:04.811Z,99500.34
2023-02-27T16:55:33.941Z,99506.81
2023-02-27T16:58:01.731Z,99511.94
2023-02-27T17:00:36.553Z,99517.72
2023-02-27T17:03:04.736Z,99529.31
2023-02-27T17:05:34.921Z,99533.91
2023-02-27T17:08:05.854Z,99537.88
2023-02-27T17:10:35.116Z,99542.44
2023-02-27T17:13:05.570Z,99556.13
2023-02-27T17:15:33.815Z,99560.22
2023-02-27T17:18:01.545Z,99569.53
2023-02-27T17:20:31.701Z,99584.53
2023-02-27T17:22:59.230Z,99587.22
2023-02-27T17:25:32.178Z,99588.81
2023-02-27T17:28:02.793Z,99592.19
2023-02-27T17:30:32.886Z,99588.63
2023-02-27T17:33:02.076Z,99584.97
2023-02-27T17:35:33.158Z,99587.06
2023-02-27T17:38:01.919Z,99586.91
2023-02-27T17:40:30.210Z,99580.69
2023-02-27T17:42:59.276Z,99585.06
2023-02-27T17:45:29.160Z,99590.13
2023-02-27T17:47:57.642Z,99588.06
2023-02-27T17:50:27.432Z,99601.28
2023-02-27T17:52:58.816Z,99602.00
2023-02-27T17:55:26.593Z,99607.69
2023-02-27T17:57:55.811Z,99604.38
2023-02-27T18:00:26.603Z,99619.38
2023-02-27T18:02:54.467Z,99616.16
2023-02-27T18:05:22.136Z,99621.47
2023-02-27T18:07:50.040Z,99614.91
2023-02-27T18:10:23.800Z,99621.28
2023-02-27T18:12:55.026Z,99625.38
2023-02-27T18:15:25.142Z,99622.13
2023-02-27T18:17:52.646Z,99623.88
2023-02-27T18:20:22.061Z,99636.34
2023-02-27T18:22:49.581Z,99638.81
2023-02-27T18:25:17.641Z,99645.56
2023-02-27T18:27:45.131Z,99644.94
2023-02-27T18:30:14.048Z,99644.44
2023-02-27T18:32:42.591Z,99645.19
2023-02-27T18:35:16.102Z,99648.28
2023-02-27T18:37:44.878Z,99648.59
2023-02-27T18:40:34.554Z,99646.44
2023-02-27T18:43:03.750Z,99642.91
2023-02-27T18:45:51.848Z,99649.84
2023-02-27T18:48:22.467Z,99648.88
2023-02-27T18:50:53.300Z,99659.88
2023-02-27T18:53:23.111Z,99667.13
2023-02-27T18:55:52.070Z,99669.31
2023-02-27T18:58:21.656Z,99675.03
2023-02-27T19:01:17.625Z,99688.69
2023-02-27T19:03:45.480Z,99691.16
2023-02-27T19:06:17.782Z,99687.44
2023-02-27T19:08:46.777Z,99685.84
2023-02-27T19:11:34.811Z,99681.66
2023-02-27T19:14:09.821Z,99685.84
2023-02-27T19:16:37.854Z,99686.63
2023-02-27T19:19:12.319Z,99686.00
2023-02-27T19:21:42.851Z,99693.69
2023-02-27T19:24:14.792Z,99693.06
2023-02-27T19:26:42.384Z,99697.03
2023-02-27T19:29:10.177Z,99697.78
2023-02-27T19:31:37.991Z,99700.19
2023-02-27T19:34:06.115Z,99708.47
2023-02-27T19:36:34.975Z,99712.75
2023-02-27T19:39:05.498Z,99712.53
2023-02-27T19:41:34.630Z,99715.16
2023-02-27T19:44:02.467Z,99715.69
2023-02-27T19:46:34.310Z,99721.41
2023-02-27T19:49:05.821Z,99726.47
2023-02-27T19:51:35.213Z,99729.34
2023-02-27T19:54:04.492Z,99729.22
2023-02-27T19:56:40.756Z,99741.72
2023-02-27T19:59:12.087Z,99741.97
2023-02-27T20:01:40.846Z,99745.28
2023-02-27T20:04:13.858Z,99752.72
2023-02-27T20:06:44.464Z,99751.06
2023-02-27T20:09:18.390Z,99759.50
2023-02-27T20:11:48.727Z,99760.72
2023-02-27T20:14:18.686Z,99762.78
2023-02-27T20:16:48.268Z,99776.91
2023-02-27T20:19:20.633Z,99766.59
2023-02-27T20:21:54.566Z,99770.97
2023-02-27T20:24:22.499Z,99784.59
2023-02-27T20:26:55.050Z,99798.69
2023-02-27T20:29:26.301Z,99796.31
2023-02-27T20:31:58.329Z,99806.31
2023-02-27T20:34:27.286Z,99814.63
2023-02-27T20:36:57.695Z,99816.47
2023-02-27T20:39:26.172Z,99814.81
2023-02-27T20:41:53.742Z,99811.72
2023-02-27T20:44:21.268Z,99815.34
2023-02-27T20:46:50.290Z,99825.91
2023-02-27T20:49:18.441Z,99826.25
2023-02-27T20:51:49.570Z,99837.97
2023-02-27T20:54:20.856Z,99841.84
2023-02-27T20:57:06.273Z,99857.91
2023-02-27T20:59:34.571Z,99851.06
2023-02-27T21:02:05.196Z,99854.41
2023-02-27T21:04:47.350Z,99850.13
2023-02-27T21:07:22.895Z,99854.28
2023-02-27T21:09:54.246Z,99859.22
2023-02-27T21:12:25.273Z,99856.59
2023-02-27T21:14:54.283Z,99855.19
2023-02-27T21:17:25.430Z,99859.34
2023-02-27T21:19:57.089Z,99859.84
2023-02-27T21:22:45.501Z,99855.19
2023-02-27T21:25:15.464Z,99861.25
2023-02-27T21:27:43.425Z,99867.28
2023-02-27T21:30:14.532Z,99865.75
2023-02-27T21:32:42.629Z,99865.91
2023-02-27T21:35:12.190Z,99879.19
2023-02-27T21:37:49.357Z,99869.00
2023-02-27T21:40:19.793Z,99878.44
2023-02-27T21:42:50.425Z,99877.19
2023-02-27T21:45:21.803Z,99871.75
2023-02-27T21:47:51.382Z,99887.09
2023-02-27T21:50:23.048Z,99888.03
2023-02-27T21:52:54.715Z,99889.72
2023-02-27T21:55:23.578Z,99895.63
2023-02-27T21:57:53.705Z,99892.38
2023-02-27T22:00:26.998Z,99897.16
2023-02-27T22:02:56.113Z,99906.13
2023-02-27T22:05:26.442Z,99905.31
2023-02-27T22:07:59.580Z,99904.06
2023-02-27T22:10:48.008Z,99911.66
2023-02-27T22:13:17.098Z,99912.69
2023-02-27T22:15:44.803Z,99920.66
2023-02-27T22:18:18.648Z,99917.50
2023-02-27T22:20:47.949Z,99922.06
2023-02-27T22:23:19.219Z,99928.53
2023-02-27T22:25:48.225Z,99935.56
2023-02-27T22:28:15.894Z,99938.19
2023-02-27T22:30:43.510Z,99950.25
2023-02-27T22:33:10.932Z,99945.34
2023-02-27T22:35:39.832Z,99951.91
2023-02-27T22:38:08.213Z,99960.84
2023-02-27T22:40:36.205Z,99968.94
2023-02-27T22:43:03.948Z,99962.72
2023-02-27T22:45:31.417Z,99967.25
2023-02-27T22:47:59.270Z,99964.69
2023-02-27T22:50:26.904Z,99961.31
2023-02-27T22:52:54.376Z,99963.66
2023-02-27T22:55:21.895Z,99965.75
2023-02-27T22:57:51.844Z,99966.22
2023-02-27T23:00:20.858Z,99967.38
2023-02-27T23:02:48.412Z,99968.00
2023-02-27T23:05:16.021Z,99972.91
2023-02-27T23:07:43.773Z,99985.19
2023-02-27T23:10:13.162Z,99988.81
2023-02-27T23:12:40.703Z,99990.06
2023-02-27T23:15:09.455Z,99999.63
2023-02-27T23:17:43.568Z,99999.88
2023-02-27T23:20:17.019Z,100010.97
2023-02-27T23:22:44.542Z,100012.00
2023-02-27T23:25:12.070Z,100007.06
2023-02-27T23:27:39.532Z,100016.25
2023-02-27T23:30:08.188Z,100028.25
2023-02-27T23:32:43.545Z,100027.03
2023-02-27T23:35:12.655Z,100032.88
2023-02-27T23:37:40.482Z,100047.34
2023-02-27T23:40:09.593Z,100046.28
2023-02-27T23:42:55.664Z,100057.81
2023-02-27T23:45:23.260Z,100058.41
2023-02-27T23:47:56.535Z,100062.97
2023-02-27T23:50:37.706Z,100066.47
2023-02-27T23:53:06.693Z,100066.47
2023-02-27T23:55:38.049Z,100068.31
2023-02-27T23:58:09.488Z,100073.47
